CheckWX is a tool to help pilots better visualize weather data.  It is not intended as a substitute for an official pre-flight weather briefing.

17:30:03 UTC

EHDL METAR
Deelen Air Base Airport
Arnhem, The Netherlands
Current

35 mins ago

EHDL 241655Z AUTO 32009KT 270V360 9999 NCD 10/M02 Q1025 BLU
Observed
Mar-24 @ 16:55 UTC
Wind
  • 320° at 9 KTS
Visibility
10,000+ meters
Flight Rules
VFR
Cloud Levels
  • Clear skies
Temperature
10°C / 50°F
Dewpoint
-2°C / 28°F
Humidity
43%
Altimeter
30.27" Hg
Pressure
1024.92 hPa
Previous

1 hour ago

EHDL 241625Z AUTO 29009KT 240V360 9999 NCD 10/00 Q1025 BLU
Observed
Mar-24 @ 16:25 UTC
Wind
  • 290° at 9 KTS
Visibility
10,000+ meters
Flight Rules
VFR
Cloud Levels
  • Clear skies
Temperature
10°C / 50°F
Dewpoint
C / 32°F
Humidity
50%
Altimeter
30.27" Hg
Pressure
1024.92 hPa
Previous

2 hours ago

EHDL 241555Z AUTO 31009KT 240V350 9999 FEW037 10/01 Q1025 BLU
Observed
Mar-24 @ 15:55 UTC
Wind
  • 310° at 9 KTS
Visibility
10,000+ meters
Flight Rules
VFR
Cloud Levels
  • Few at 3,700' AGL
Temperature
10°C / 50°F
Dewpoint
C / 34°F
Humidity
54%
Altimeter
30.27" Hg
Pressure
1024.92 hPa